Time;durP1;ratioP1;P1;durP2;ratioP2;P2;SDS_P1;SDS_P2;PMS_P1;PMS_P2;Temp;Humidity;BMP_temperature;BMP_pressure;BME280_temperature;BME280_humidity;BME280_pressure;Samples;Min_cycle;Max_cycle;Signal;HPM_P1;HPM_P2
2021/10/31 00:02:05;;;;;;;23.88;12.63;;;;;;;6.58;81.54;100030.66;5053779;28;20037;-66
2021/10/31 00:04:31;;;;;;;20.65;11.30;;;;;;;6.55;81.43;100023.94;5053439;28;20048;-65
2021/10/31 00:06:57;;;;;;;20.95;12.15;;;;;;;6.49;81.37;100022.09;5052500;28;20041;-66
2021/10/31 00:09:23;;;;;;;22.02;12.45;;;;;;;6.50;81.32;100022.91;5053553;28;20176;-65
2021/10/31 00:11:48;;;;;;;25.48;12.73;;;;;;;6.50;81.68;100015.84;5053569;28;20643;-66
2021/10/31 00:14:14;;;;;;;25.20;12.10;;;;;;;6.48;81.52;100020.50;4999198;28;20047;-64
2021/10/31 00:16:40;;;;;;;22.05;12.23;;;;;;;6.48;81.40;100031.03;5033233;28;20506;-66
2021/10/31 00:19:06;;;;;;;24.02;13.68;;;;;;;6.43;81.52;100030.78;5048712;28;20091;-66
2021/10/31 00:21:33;;;;;;;24.52;13.88;;;;;;;6.42;81.65;100023.91;5035276;28;20494;-66
2021/10/31 00:23:59;;;;;;;26.08;13.23;;;;;;;6.41;81.61;100017.00;5052944;28;20517;-65
2021/10/31 00:26:25;;;;;;;24.17;12.60;;;;;;;6.41;82.09;100017.00;5052115;28;20140;-67
2021/10/31 00:28:51;;;;;;;26.70;13.18;;;;;;;6.37;81.98;100013.94;5053249;28;20124;-65
2021/10/31 00:31:17;;;;;;;25.70;13.05;;;;;;;6.40;81.75;100010.09;5053074;28;20041;-65
2021/10/31 00:33:43;;;;;;;19.77;12.38;;;;;;;6.39;81.89;100010.31;5051822;28;20033;-65
2021/10/31 00:36:09;;;;;;;23.48;12.85;;;;;;;6.37;81.71;100008.66;5053212;28;20044;-65
2021/10/31 00:38:35;;;;;;;24.92;13.98;;;;;;;6.36;81.67;100003.63;5052855;28;20041;-64
2021/10/31 00:41:00;;;;;;;20.90;11.57;;;;;;;6.33;81.60;100001.38;5052812;28;20036;-67
2021/10/31 00:43:26;;;;;;;22.85;13.05;;;;;;;6.33;81.66;100004.81;5052594;28;20348;-65
2021/10/31 00:45:52;;;;;;;25.35;13.40;;;;;;;6.33;81.76;100009.28;5052641;28;20041;-66
2021/10/31 00:48:18;;;;;;;27.10;13.60;;;;;;;6.28;81.90;100001.94;5052501;28;20052;-65
2021/10/31 00:50:48;;;;;;;22.50;12.27;;;;;;;6.25;81.62;99994.44;5052648;28;20163;-65
2021/10/31 00:53:14;;;;;;;24.23;13.25;;;;;;;6.27;81.52;99988.97;5034118;28;20045;-67
2021/10/31 00:55:40;;;;;;;23.02;12.48;;;;;;;6.27;81.65;99991.63;5051231;28;20049;-65
2021/10/31 00:58:08;;;;;;;22.42;12.15;;;;;;;6.25;81.47;99989.16;5034152;28;20525;-66
2021/10/31 01:00:34;;;;;;;24.30;13.10;;;;;;;6.21;81.92;99987.13;5034478;28;20132;-67
2021/10/31 01:03:00;;;;;;;24.42;12.85;;;;;;;6.21;81.50;99979.22;5051957;28;20136;-66
2021/10/31 01:05:32;;;;;;;23.95;13.13;;;;;;;6.21;81.79;99987.94;5032167;28;20077;-66
2021/10/31 01:08:22;;;;;;;24.23;12.32;;;;;;;6.20;81.86;99982.84;5032364;28;20041;-66
2021/10/31 01:11:30;;;;;;;24.45;12.75;;;;;;;6.21;81.51;99973.97;5032265;28;20099;-67
2021/10/31 01:14:38;;;;;;;20.38;11.18;;;;;;;6.17;81.27;99965.63;5037388;28;20053;-66
2021/10/31 01:17:37;;;;;;;22.13;11.82;;;;;;;6.11;81.43;99969.84;5052069;28;20072;-65
2021/10/31 01:20:22;;;;;;;21.45;11.32;;;;;;;6.10;81.16;99967.41;5033844;28;20065;-64
2021/10/31 01:23:03;;;;;;;20.13;11.52;;;;;;;6.05;81.48;99964.53;5051148;28;20060;-66
2021/10/31 01:25:32;;;;;;;22.48;12.43;;;;;;;6.05;81.43;99962.72;5050742;28;20084;-66
2021/10/31 01:28:37;;;;;;;19.05;10.90;;;;;;;5.96;80.96;99942.84;5051330;28;20060;-64
2021/10/31 01:31:24;;;;;;;21.58;12.30;;;;;;;5.98;81.46;99940.03;5051906;28;20041;-66
2021/10/31 01:34:01;;;;;;;19.90;11.05;;;;;;;5.96;81.50;99936.75;5051838;28;20375;-65
2021/10/31 01:36:44;;;;;;;19.58;11.30;;;;;;;5.99;80.94;99949.53;5050674;28;20048;-64
2021/10/31 01:39:18;;;;;;;21.77;11.82;;;;;;;5.96;81.13;99944.66;5051764;28;20045;-65
2021/10/31 01:42:14;;;;;;;21.48;11.07;;;;;;;5.97;80.91;99935.75;5050488;28;20033;-66
2021/10/31 01:44:48;;;;;;;23.38;11.77;;;;;;;5.98;80.67;99937.41;5051693;28;20525;-65
2021/10/31 01:47:42;;;;;;;18.17;10.93;;;;;;;5.91;80.65;99927.63;5050382;28;20517;-65
2021/10/31 01:50:35;;;;;;;19.33;10.88;;;;;;;5.94;80.56;99923.78;5051722;28;20076;-65
2021/10/31 01:53:09;;;;;;;20.23;10.45;;;;;;;5.90;80.31;99912.00;5017453;28;20067;-65
2021/10/31 01:55:40;;;;;;;20.60;11.40;;;;;;;5.89;80.32;99902.50;5049961;28;20048;-66
2021/10/31 01:58:07;;;;;;;21.40;11.48;;;;;;;5.86;80.45;99916.84;5050029;28;20556;-66
2021/10/31 02:00:33;;;;;;;19.35;10.85;;;;;;;5.87;80.21;99907.13;5033663;28;20067;-66
2021/10/31 02:03:02;;;;;;;23.25;11.60;;;;;;;5.85;79.53;99912.59;5050432;28;20049;-65
2021/10/31 02:05:32;;;;;;;21.92;12.10;;;;;;;5.87;79.71;99918.47;5049620;28;20036;-65
2021/10/31 02:08:09;;;;;;;20.77;11.38;;;;;;;5.86;79.59;99916.03;5051011;28;20546;-64
2021/10/31 02:10:36;;;;;;;21.98;11.38;;;;;;;5.86;79.80;99913.41;5049882;28;20049;-66
2021/10/31 02:13:04;;;;;;;21.00;11.43;;;;;;;5.86;79.49;99914.22;5051342;28;20041;-66
2021/10/31 02:15:30;;;;;;;21.17;11.15;;;;;;;5.86;79.84;99921.31;5051305;28;20051;-65
2021/10/31 02:17:57;;;;;;;22.40;11.35;;;;;;;5.84;79.35;99912.78;5050090;28;20513;-65
2021/10/31 02:20:24;;;;;;;19.45;11.32;;;;;;;5.82;79.85;99906.88;5050032;28;20041;-66
2021/10/31 02:22:57;;;;;;;21.08;11.25;;;;;;;5.82;79.48;99909.53;5050291;28;20083;-65
2021/10/31 02:25:24;;;;;;;21.73;11.77;;;;;;;5.79;79.35;99913.34;5051024;28;20454;-66
2021/10/31 02:27:50;;;;;;;21.63;11.73;;;;;;;5.77;79.19;99911.94;5049710;28;20040;-65
2021/10/31 02:30:17;;;;;;;18.65;11.68;;;;;;;5.75;79.51;99908.69;5051366;28;20069;-65
2021/10/31 02:32:42;;;;;;;22.60;11.57;;;;;;;5.75;79.23;99913.94;5049871;28;20056;-66
2021/10/31 02:35:11;;;;;;;22.17;11.02;;;;;;;5.73;79.13;99914.13;5051289;28;20509;-65
2021/10/31 02:37:38;;;;;;;18.50;10.02;;;;;;;5.69;79.17;99913.69;5050848;28;20044;-65
2021/10/31 02:40:05;;;;;;;24.92;11.35;;;;;;;5.69;79.24;99916.31;5051352;28;20045;-66
2021/10/31 02:42:31;;;;;;;21.67;12.18;;;;;;;5.69;79.67;99913.69;5055326;28;20441;-66
2021/10/31 02:44:57;;;;;;;19.70;10.52;;;;;;;5.67;79.64;99917.53;5054962;28;20052;-66
2021/10/31 02:47:37;;;;;;;18.73;10.48;;;;;;;5.65;79.17;99915.09;5054818;28;20573;-65
2021/10/31 02:50:05;;;;;;;21.73;11.13;;;;;;;5.66;78.91;99913.28;5053266;28;20502;-65
2021/10/31 02:53:07;;;;;;;25.58;11.38;;;;;;;5.67;79.49;99920.16;5036568;28;20123;-66
2021/10/31 02:56:17;;;;;;;21.52;12.02;;;;;;;5.63;79.12;99911.84;5053416;28;20106;-66
2021/10/31 02:59:13;;;;;;;24.05;11.80;;;;;;;5.56;79.51;99899.63;5054688;28;20401;-65
2021/10/31 03:01:40;;;;;;;17.60;11.00;;;;;;;5.57;79.40;99896.03;5052696;28;20107;-66
2021/10/31 03:04:05;;;;;;;20.05;11.73;;;;;;;5.55;79.52;99901.47;5054551;28;20044;-66
2021/10/31 03:06:31;;;;;;;20.83;12.52;;;;;;;5.57;78.98;99896.03;5053628;28;20448;-67
2021/10/31 03:08:57;;;;;;;20.13;12.15;;;;;;;5.54;79.52;99899.84;5054710;28;20494;-66
2021/10/31 03:11:23;;;;;;;20.23;11.43;;;;;;;5.55;79.21;99904.09;5054463;28;20041;-66
2021/10/31 03:13:49;;;;;;;20.58;11.52;;;;;;;5.54;78.88;99896.41;5052801;28;20140;-66
2021/10/31 03:16:14;;;;;;;21.38;11.20;;;;;;;5.55;79.29;99895.41;5053322;28;20442;-65
2021/10/31 03:18:40;;;;;;;25.08;11.55;;;;;;;5.53;78.94;99895.59;5053766;28;20087;-66
2021/10/31 03:21:06;;;;;;;21.27;11.32;;;;;;;5.52;78.52;99895.78;5053272;28;20048;-65
2021/10/31 03:23:32;;;;;;;22.27;12.25;;;;;;;5.50;78.86;99885.47;5054000;28;20564;-66
2021/10/31 03:25:58;;;;;;;22.98;12.70;;;;;;;5.53;78.63;99890.34;5054273;28;20041;-65
2021/10/31 03:28:23;;;;;;;20.20;11.13;;;;;;;5.51;78.72;99894.16;5052782;28;20091;-66
2021/10/31 03:30:49;;;;;;;20.98;11.25;;;;;;;5.44;78.65;99889.66;5054145;28;20041;-65
2021/10/31 03:33:16;;;;;;;22.98;11.70;;;;;;;5.42;78.80;99888.25;5053788;28;20053;-67
2021/10/31 03:35:42;;;;;;;23.48;12.70;;;;;;;5.39;79.06;99884.16;5052794;28;20037;-67
2021/10/31 03:38:07;;;;;;;20.63;11.90;;;;;;;5.36;78.70;99881.91;5053789;28;20064;-65
2021/10/31 03:40:33;;;;;;;25.45;11.27;;;;;;;5.32;79.25;99877.22;5053540;28;20129;-66
2021/10/31 03:42:59;;;;;;;21.08;11.48;;;;;;;5.35;78.84;99882.09;5053765;28;20045;-66
2021/10/31 03:45:25;;;;;;;20.52;11.98;;;;;;;5.35;79.35;99882.09;5052947;28;20159;-66
2021/10/31 03:47:51;;;;;;;21.67;11.23;;;;;;;5.33;78.99;99876.25;5052224;28;20128;-66
2021/10/31 03:50:21;;;;;;;25.35;12.40;;;;;;;5.31;79.85;99871.16;5052528;28;20041;-66
2021/10/31 03:52:47;;;;;;;21.48;10.65;;;;;;;5.26;79.50;99867.47;5052239;28;20041;-65
2021/10/31 03:55:15;;;;;;;19.98;11.27;;;;;;;5.22;79.26;99870.47;5053408;28;20418;-65
2021/10/31 03:57:41;;;;;;;20.27;10.98;;;;;;;5.26;79.30;99865.66;5053620;28;20033;-66
2021/10/31 04:00:09;;;;;;;17.98;10.85;;;;;;;5.24;79.89;99876.38;5051942;28;20099;-66
2021/10/31 04:02:39;;;;;;;18.10;10.38;;;;;;;5.21;79.15;99863.63;5053648;28;20088;-66
2021/10/31 04:05:09;;;;;;;23.63;12.27;;;;;;;5.17;79.53;99861.53;5053530;28;20135;-66
2021/10/31 04:07:35;;;;;;;;;;;;;;;5.16;79.99;99863.38;5054201;28;20037;-65
2021/10/31 04:10:04;;;;;;;18.08;10.40;;;;;;;5.14;79.65;99868.00;5052897;28;19947;-66
2021/10/31 04:12:30;;;;;;;19.98;11.05;;;;;;;5.11;79.32;99857.06;5053565;28;20036;-65
2021/10/31 04:14:56;;;;;;;19.58;11.13;;;;;;;5.08;79.93;99850.34;5053418;28;20398;-65
2021/10/31 04:17:22;;;;;;;19.80;10.82;;;;;;;5.11;80.00;99860.50;5053108;28;20041;-66
2021/10/31 04:19:48;;;;;;;18.85;10.75;;;;;;;5.15;79.79;99864.38;5051355;28;20593;-66
2021/10/31 04:22:14;;;;;;;20.77;11.23;;;;;;;5.09;79.41;99862.50;5053427;28;20045;-65
2021/10/31 04:24:39;;;;;;;17.60;10.32;;;;;;;5.08;79.29;99854.81;5053320;28;20387;-65
2021/10/31 04:27:06;;;;;;;20.33;10.85;;;;;;;5.07;80.17;99861.06;5051882;28;20395;-65
2021/10/31 04:29:32;;;;;;;20.60;10.52;;;;;;;5.06;80.12;99852.38;5039699;28;20053;-66
2021/10/31 04:31:58;;;;;;;18.77;10.38;;;;;;;5.00;80.27;99851.31;5033291;28;20456;-65
2021/10/31 04:34:24;;;;;;;17.90;10.10;;;;;;;5.05;80.15;99855.19;5043038;28;20127;-65
2021/10/31 04:36:51;;;;;;;20.08;11.05;;;;;;;5.00;80.14;99861.03;5052694;28;20045;-67
2021/10/31 04:39:17;;;;;;;20.15;10.48;;;;;;;4.98;79.39;99853.31;5050778;28;20045;-65
2021/10/31 04:41:46;;;;;;;21.52;9.80;;;;;;;4.97;80.14;99853.50;5052944;28;20041;-65
2021/10/31 04:44:12;;;;;;;21.52;11.10;;;;;;;4.97;80.09;99862.22;5051408;28;20383;-64
2021/10/31 04:46:38;;;;;;;20.38;10.77;;;;;;;4.97;79.46;99854.34;5052926;28;20053;-67
2021/10/31 04:49:04;;;;;;;17.67;10.35;;;;;;;4.99;79.45;99851.50;5050963;28;20040;-66
2021/10/31 04:51:30;;;;;;;24.60;11.18;;;;;;;4.99;80.03;99846.25;5051293;28;20044;-66
2021/10/31 04:53:56;;;;;;;21.10;10.60;;;;;;;5.01;79.49;99846.88;5052300;28;20041;-65
2021/10/31 04:56:23;;;;;;;17.33;9.73;;;;;;;5.01;78.95;99849.50;5052766;28;20036;-68
2021/10/31 04:58:52;;;;;;;19.50;11.02;;;;;;;5.02;79.58;99853.75;5052004;28;20073;-65
2021/10/31 05:01:18;;;;;;;21.33;10.75;;;;;;;5.06;78.96;99851.53;5051302;28;20200;-66
2021/10/31 05:03:45;;;;;;;19.65;10.57;;;;;;;5.06;78.79;99856.78;5051390;28;20037;-63
2021/10/31 05:06:11;;;;;;;17.60;10.00;;;;;;;5.06;78.70;99857.63;5052244;28;20049;-62
2021/10/31 05:08:37;;;;;;;19.15;10.55;;;;;;;5.09;78.53;99857.25;5050814;28;20041;-63
2021/10/31 05:11:03;;;;;;;17.95;10.20;;;;;;;5.09;78.23;99853.78;5051226;28;20044;-62
2021/10/31 05:13:29;;;;;;;18.58;9.80;;;;;;;5.12;77.98;99856.06;5052099;28;20055;-62
2021/10/31 05:15:55;;;;;;;19.67;10.05;;;;;;;5.09;78.19;99852.00;5052087;28;20132;-61
2021/10/31 05:18:22;;;;;;;21.75;11.82;;;;;;;5.09;78.46;99853.78;5049485;28;20053;-59
2021/10/31 05:20:49;;;;;;;18.45;10.15;;;;;;;5.08;78.97;99860.06;5001469;28;20036;-60
2021/10/31 05:23:15;;;;;;;18.65;9.57;;;;;;;5.11;77.75;99857.84;5051899;28;20059;-62
2021/10/31 05:25:41;;;;;;;17.48;10.05;;;;;;;5.16;78.63;99857.31;5052125;28;20044;-61
2021/10/31 05:28:07;;;;;;;16.50;9.73;;;;;;;5.20;77.71;99861.97;5051878;28;20049;-59
2021/10/31 05:30:32;;;;;;;18.45;9.93;;;;;;;5.17;78.17;99858.91;5050706;28;20045;-60
2021/10/31 05:32:58;;;;;;;20.55;10.60;;;;;;;5.17;78.08;99859.72;5051618;28;20129;-61
2021/10/31 05:35:25;;;;;;;16.55;9.98;;;;;;;5.21;77.56;99861.00;5051818;28;20060;-60
2021/10/31 05:37:57;;;;;;;17.85;9.90;;;;;;;5.25;77.70;99856.16;5051694;28;20051;-61
2021/10/31 05:40:25;;;;;;;21.77;10.50;;;;;;;5.28;77.61;99844.44;5051896;28;20045;-61
2021/10/31 05:42:51;;;;;;;17.92;10.27;;;;;;;5.29;77.23;99844.25;5051731;28;20036;-61
2021/10/31 05:45:16;;;;;;;19.33;10.52;;;;;;;5.33;77.08;99850.75;5051818;28;20043;-60
2021/10/31 05:47:43;;;;;;;18.90;10.93;;;;;;;5.32;76.57;99851.75;5051714;28;20037;-62
2021/10/31 05:50:11;;;;;;;19.10;9.57;;;;;;;5.32;77.22;99849.13;5051615;28;20111;-62
2021/10/31 05:52:37;;;;;;;18.92;9.95;;;;;;;5.34;76.96;99851.56;5050351;28;20179;-64
2021/10/31 05:55:08;;;;;;;17.00;9.77;;;;;;;5.38;76.67;99851.00;5049735;28;20530;-63
2021/10/31 05:57:34;;;;;;;18.95;9.55;;;;;;;5.41;76.38;99847.16;5051323;28;20041;-65
2021/10/31 06:00:05;;;;;;;20.45;10.02;;;;;;;5.40;75.98;99846.34;5051041;28;20127;-62
2021/10/31 06:02:45;;;;;;;19.17;10.23;;;;;;;5.46;76.45;99848.19;5045763;28;20410;-61
2021/10/31 06:05:12;;;;;;;18.75;10.30;;;;;;;5.55;75.59;99866.47;5048245;28;20049;-62
2021/10/31 06:07:42;;;;;;;21.70;9.98;;;;;;;5.52;76.09;99853.72;5051407;28;20044;-63
2021/10/31 06:10:09;;;;;;;19.58;10.32;;;;;;;5.55;75.46;99850.69;5049923;28;20037;-63
2021/10/31 06:12:35;;;;;;;17.80;9.85;;;;;;;5.54;75.74;99852.50;5051496;28;20044;-64
2021/10/31 06:15:03;;;;;;;17.58;9.85;;;;;;;5.55;75.45;99854.13;5032947;28;20127;-64
2021/10/31 06:17:29;;;;;;;19.30;10.25;;;;;;;5.61;75.62;99855.97;5051516;28;20171;-62
2021/10/31 06:19:55;;;;;;;20.85;10.77;;;;;;;5.61;75.43;99855.97;5032232;28;20063;-61
2021/10/31 06:22:21;;;;;;;17.98;9.63;;;;;;;5.65;74.66;99856.44;5051057;28;20099;-62
2021/10/31 06:24:47;;;;;;;18.33;9.55;;;;;;;5.68;75.30;99851.59;5051253;28;20048;-61
2021/10/31 06:27:12;;;;;;;18.45;10.20;;;;;;;5.75;75.00;99858.69;5050126;28;20036;-63
2021/10/31 06:29:38;;;;;;;18.75;10.38;;;;;;;5.75;74.52;99853.44;5050851;28;20114;-62
2021/10/31 06:32:04;;;;;;;19.45;11.10;;;;;;;5.76;74.25;99853.22;5051165;28;20067;-63
2021/10/31 06:34:30;;;;;;;21.50;10.35;;;;;;;5.79;74.31;99858.09;5050261;28;20076;-62
2021/10/31 06:36:56;;;;;;;21.15;10.85;;;;;;;5.83;74.23;99859.34;5050898;28;20073;-62
2021/10/31 06:39:22;;;;;;;20.45;11.15;;;;;;;5.81;74.11;99853.47;5049435;28;20055;-61
2021/10/31 06:41:47;;;;;;;21.15;10.73;;;;;;;5.83;74.08;99863.81;5050944;28;20418;-62
2021/10/31 06:44:13;;;;;;;21.50;11.20;;;;;;;5.87;73.84;99871.09;5049588;28;20069;-61
2021/10/31 06:46:39;;;;;;;21.83;10.48;;;;;;;5.94;74.16;99870.34;5050992;28;20067;-61
2021/10/31 06:49:08;;;;;;;20.77;10.52;;;;;;;5.94;74.13;99878.25;5049384;28;20045;-61
2021/10/31 06:51:34;;;;;;;23.45;11.30;;;;;;;5.97;73.89;99875.22;5036683;28;20045;-61
2021/10/31 06:54:00;;;;;;;24.23;10.68;;;;;;;5.98;73.93;99871.59;5037054;28;20041;-60
2021/10/31 06:56:26;;;;;;;19.58;10.45;;;;;;;6.03;73.39;99861.28;5051046;28;20127;-62
2021/10/31 06:58:52;;;;;;;22.08;11.60;;;;;;;6.06;73.35;99868.78;5048930;28;20053;-61
2021/10/31 07:01:18;;;;;;;23.83;11.55;;;;;;;6.05;73.24;99872.44;5048916;28;20128;-61
2021/10/31 07:03:47;;;;;;;19.65;10.60;;;;;;;6.06;73.54;99872.25;5050441;28;20431;-61
2021/10/31 07:06:15;;;;;;;21.00;10.68;;;;;;;6.09;73.06;99869.22;5049805;28;20045;-63
2021/10/31 07:08:42;;;;;;;22.13;10.95;;;;;;;6.15;73.34;99870.25;5032760;28;20044;-63
2021/10/31 07:11:08;;;;;;;24.08;11.57;;;;;;;6.16;73.00;99871.88;5050056;28;20052;-64
2021/10/31 07:13:34;;;;;;;23.52;11.18;;;;;;;6.21;72.80;99876.56;5050233;28;20056;-64
2021/10/31 07:16:00;;;;;;;23.02;10.07;;;;;;;6.25;72.85;99872.53;5049437;28;20037;-61
2021/10/31 07:18:26;;;;;;;22.33;11.35;;;;;;;6.24;72.98;99871.72;5049337;28;20103;-60
2021/10/31 07:20:52;;;;;;;24.42;11.15;;;;;;;6.30;72.87;99876.19;5049647;28;20049;-61
2021/10/31 07:23:18;;;;;;;18.65;11.05;;;;;;;6.31;72.60;99869.91;5050131;28;20171;-62
2021/10/31 07:28:37;;;;;;;21.20;11.07;;;;;;;6.37;72.09;99855.13;5052736;28;20041;-63
2021/10/31 07:31:17;;;;;;;20.42;10.10;;;;;;;6.38;71.85;99862.00;5050963;28;20148;-62
2021/10/31 07:34:15;;;;;;;23.70;11.52;;;;;;;6.39;71.79;99863.66;5030560;28;20115;-62
2021/10/31 07:36:44;;;;;;;22.60;10.65;;;;;;;6.34;71.26;99858.16;4983312;28;20064;-63
2021/10/31 07:39:11;;;;;;;22.48;12.13;;;;;;;6.33;71.38;99859.19;5039064;28;20064;-62
2021/10/31 07:41:38;;;;;;;22.52;11.20;;;;;;;6.33;71.77;99860.00;5051300;28;20135;-63
2021/10/31 07:44:08;;;;;;;24.33;10.90;;;;;;;6.37;71.24;99865.66;5034825;28;20072;-63
2021/10/31 07:46:34;;;;;;;23.38;10.88;;;;;;;6.34;71.71;99858.16;5051203;28;20045;-64
2021/10/31 07:49:01;;;;;;;22.48;11.73;;;;;;;6.45;71.66;99864.69;5050942;28;20569;-64
2021/10/31 07:51:28;;;;;;;24.10;11.50;;;;;;;6.56;70.71;99861.47;5050159;28;20077;-63
2021/10/31 07:53:54;;;;;;;25.98;11.73;;;;;;;6.74;70.21;99866.97;5050472;28;20047;-62
2021/10/31 07:56:22;;;;;;;20.90;10.75;;;;;;;6.89;69.51;99869.44;5050918;28;20045;-62
2021/10/31 07:58:54;;;;;;;23.38;12.35;;;;;;;7.00;69.06;99874.09;5050500;28;20505;-64
2021/10/31 08:01:22;;;;;;;22.75;11.10;;;;;;;7.07;69.16;99876.75;5050743;28;20138;-62
2021/10/31 08:03:48;;;;;;;21.48;10.15;;;;;;;7.11;68.68;99885.03;5040523;28;20144;-62
2021/10/31 08:06:14;;;;;;;25.40;11.13;;;;;;;7.14;68.40;99874.91;5030663;28;20565;-61
2021/10/31 08:08:40;;;;;;;22.17;12.60;;;;;;;7.33;68.58;99890.94;5034648;28;20041;-63
2021/10/31 08:11:06;;;;;;;20.52;10.48;;;;;;;7.41;67.51;99890.72;5050753;28;20174;-65
2021/10/31 08:13:32;;;;;;;20.42;11.10;;;;;;;7.36;66.92;99888.72;5052928;28;20045;-63
2021/10/31 08:15:58;;;;;;;19.70;10.27;;;;;;;7.43;66.86;99897.41;5051455;28;20494;-64
2021/10/31 08:18:24;;;;;;;21.17;10.90;;;;;;;7.33;67.08;99890.94;5052164;28;20061;-61
2021/10/31 08:20:50;;;;;;;22.20;10.63;;;;;;;7.34;66.94;99888.09;5053004;28;20041;-66
2021/10/31 08:23:16;;;;;;;22.27;10.88;;;;;;;7.24;67.60;99898.25;5018373;28;20051;-66
2021/10/31 08:25:43;;;;;;;21.02;10.30;;;;;;;7.35;66.83;99884.44;5052442;28;20041;-66
2021/10/31 08:28:10;;;;;;;19.73;10.10;;;;;;;7.44;66.52;99885.88;5035038;28;20065;-68
2021/10/31 08:30:39;;;;;;;24.80;10.35;;;;;;;7.60;66.43;99887.25;5044259;28;20124;-62
2021/10/31 08:33:18;;;;;;;20.45;10.27;;;;;;;7.67;66.50;99888.03;5001724;28;20429;-62
2021/10/31 08:35:44;;;;;;;19.40;10.23;;;;;;;7.83;65.87;99896.56;5014808;28;20037;-67
2021/10/31 08:38:10;;;;;;;18.08;9.77;;;;;;;7.91;64.80;99899.78;5032677;28;20053;-63
2021/10/31 08:40:38;;;;;;;22.02;10.85;;;;;;;7.87;65.43;99893.28;5032631;28;20442;-62
2021/10/31 08:43:04;;;;;;;21.17;10.13;;;;;;;7.97;64.93;99900.75;5032456;28;20530;-64
2021/10/31 08:45:30;;;;;;;21.05;10.20;;;;;;;8.06;64.67;99904.81;5050334;28;20040;-62
2021/10/31 08:47:56;;;;;;;17.02;9.15;;;;;;;8.15;64.67;99903.56;5051742;28;20136;-62
2021/10/31 08:50:22;;;;;;;19.77;10.88;;;;;;;8.16;64.29;99907.81;5052359;28;20037;-64
2021/10/31 08:52:52;;;;;;;22.08;10.23;;;;;;;8.11;64.08;99907.63;5052221;28;20041;-64
2021/10/31 08:55:18;;;;;;;19.92;9.65;;;;;;;8.17;64.32;99909.44;5034049;28;20425;-66
2021/10/31 08:57:44;;;;;;;24.92;9.52;;;;;;;8.19;63.76;99901.31;5050965;28;20045;-62
2021/10/31 09:00:12;;;;;;;19.85;8.63;;;;;;;8.15;63.67;99903.56;5050756;28;20052;-63
2021/10/31 09:02:37;;;;;;;17.85;9.57;;;;;;;8.10;63.91;99908.66;5050138;28;20140;-66
2021/10/31 09:05:05;;;;;;;20.42;9.43;;;;;;;8.12;63.95;99901.34;5050584;28;20056;-62
2021/10/31 09:07:31;;;;;;;15.98;9.30;;;;;;;7.95;64.60;99890.44;5052336;28;20086;-63
2021/10/31 09:09:58;;;;;;;22.50;9.73;;;;;;;8.02;64.06;99905.44;5052027;28;20049;-63
2021/10/31 09:12:24;;;;;;;20.23;8.55;;;;;;;7.90;64.37;99903.44;5051754;28;20044;-61
2021/10/31 09:14:51;;;;;;;18.02;9.73;;;;;;;7.84;64.50;99900.81;5051894;28;20052;-63
2021/10/31 09:17:16;;;;;;;14.00;8.23;;;;;;;7.67;64.85;99900.44;5049888;28;20126;-64
2021/10/31 09:19:42;;;;;;;16.88;7.90;;;;;;;7.54;64.81;99903.09;5050791;28;20095;-63
2021/10/31 09:22:09;;;;;;;16.10;8.50;;;;;;;7.37;64.57;99889.50;5051340;28;20052;-64
2021/10/31 09:24:35;;;;;;;17.63;9.38;;;;;;;7.28;65.43;99902.09;5051689;28;20048;-62
2021/10/31 09:27:00;;;;;;;15.65;8.13;;;;;;;7.00;65.42;99853.03;5051357;28;20047;-65
2021/10/31 09:29:29;;;;;;;15.00;8.43;;;;;;;7.15;65.41;99894.19;5051712;28;20102;-62
2021/10/31 09:31:54;;;;;;;14.43;7.72;;;;;;;6.95;65.46;99883.63;5051414;28;20037;-64
2021/10/31 09:34:21;;;;;;;14.43;8.27;;;;;;;6.94;66.16;99888.09;5050784;28;20348;-63
2021/10/31 09:36:47;;;;;;;18.52;8.93;;;;;;;6.95;65.86;99896.81;5051523;28;20032;-65
2021/10/31 09:39:13;;;;;;;18.85;8.90;;;;;;;7.04;66.06;99896.41;5051357;28;20051;-62
2021/10/31 09:41:40;;;;;;;17.77;7.90;;;;;;;7.05;65.56;99884.03;5050299;28;20045;-65
2021/10/31 09:47:01;;;;;;;15.43;7.13;;;;;;;7.30;64.82;99880.81;5051363;28;20044;-66
2021/10/31 09:49:27;;;;;;;14.20;7.75;;;;;;;7.46;64.48;99889.09;5050907;28;20460;-62
2021/10/31 09:51:53;;;;;;;14.60;7.55;;;;;;;7.54;63.88;99889.91;5051224;28;20044;-65
2021/10/31 09:54:19;;;;;;;12.60;7.70;;;;;;;7.72;63.76;99890.06;5050810;28;20136;-63
2021/10/31 09:56:45;;;;;;;13.50;7.70;;;;;;;7.76;62.70;99893.09;5051316;28;20067;-65
2021/10/31 09:59:13;;;;;;;11.88;7.38;;;;;;;7.74;63.29;99882.78;5051044;28;20479;-63
2021/10/31 10:01:58;;;;;;;12.15;7.80;;;;;;;7.69;63.37;99880.75;5050783;28;20043;-63
2021/10/31 10:04:40;;;;;;;16.98;7.32;;;;;;;7.54;63.83;99882.00;5049483;28;20045;-64
2021/10/31 10:07:07;;;;;;;12.18;6.88;;;;;;;7.38;63.38;99857.66;5050791;28;20044;-62
2021/10/31 10:09:35;;;;;;;16.17;8.68;;;;;;;7.46;63.96;99878.53;5049319;28;20051;-62
2021/10/31 10:12:15;;;;;;;11.93;7.03;;;;;;;7.47;63.94;99871.44;5050707;28;20045;-64
2021/10/31 10:14:41;;;;;;;12.35;7.53;;;;;;;7.50;63.52;99861.31;5051017;28;20045;-62
2021/10/31 10:17:11;;;;;;;11.63;6.50;;;;;;;7.67;63.94;99866.94;5050270;28;20045;-63
2021/10/31 10:19:46;;;;;;;15.55;8.15;;;;;;;7.63;63.75;99868.38;5049202;28;20102;-63
2021/10/31 10:22:14;;;;;;;13.52;7.72;;;;;;;7.52;63.97;99871.63;5051039;28;20048;-63
2021/10/31 10:24:53;;;;;;;12.77;6.93;;;;;;;7.61;63.78;99859.03;5051007;28;20045;-63
2021/10/31 10:27:23;;;;;;;13.38;6.78;;;;;;;7.68;63.84;99846.66;5050753;28;20049;-64
2021/10/31 10:29:50;;;;;;;13.70;7.47;;;;;;;7.73;63.62;99844.19;5050655;28;20091;-67
2021/10/31 10:32:19;;;;;;;12.73;7.90;;;;;;;7.65;63.77;99841.78;5050362;28;20047;-66
2021/10/31 10:34:48;;;;;;;11.57;6.80;;;;;;;7.69;63.32;99830.59;5050871;28;20052;-63
2021/10/31 10:37:26;;;;;;;12.50;7.00;;;;;;;7.63;63.85;99830.63;5049457;28;20036;-64
2021/10/31 10:39:57;;;;;;;14.40;6.88;;;;;;;7.53;64.10;99828.44;5049078;28;20099;-64
2021/10/31 10:42:37;;;;;;;17.08;7.18;;;;;;;7.35;64.88;99823.78;5050506;28;20064;-63
2021/10/31 10:45:05;;;;;;;16.15;7.38;;;;;;;7.18;65.39;99822.59;5050581;28;20085;-62
2021/10/31 10:47:32;;;;;;;12.35;6.45;;;;;;;7.15;65.53;99817.75;5050358;28;20052;-63
2021/10/31 10:49:59;;;;;;;15.32;7.40;;;;;;;7.15;65.80;99815.09;5049140;28;20084;-62
2021/10/31 10:52:30;;;;;;;10.50;6.43;;;;;;;7.09;66.01;99808.81;5050104;28;20055;-63
2021/10/31 10:55:11;;;;;;;10.30;6.47;;;;;;;7.16;65.92;99816.72;5050771;28;20080;-62
2021/10/31 10:57:49;;;;;;;12.40;6.88;;;;;;;7.06;65.97;99811.88;5050773;28;20045;-62
2021/10/31 11:00:22;;;;;;;15.27;7.15;;;;;;;7.02;66.03;99815.91;5050221;28;20056;-63
2021/10/31 11:03:07;;;;;;;12.80;7.70;;;;;;;7.01;66.27;99803.75;5051396;28;20528;-63
2021/10/31 11:05:42;;;;;;;12.05;6.60;;;;;;;6.98;66.36;99804.97;5052812;28;20072;-61
2021/10/31 11:08:20;;;;;;;11.52;6.70;;;;;;;7.02;66.58;99806.16;5053483;28;20039;-62
2021/10/31 11:10:48;;;;;;;10.93;6.60;;;;;;;6.97;66.37;99797.25;5054605;28;20118;-66
2021/10/31 11:13:14;;;;;;;14.60;7.30;;;;;;;6.95;66.12;99797.47;5054138;28;20049;-63
2021/10/31 11:15:40;;;;;;;11.70;6.55;;;;;;;6.91;66.16;99792.78;5054035;28;20407;-61
2021/10/31 11:18:07;;;;;;;11.02;7.18;;;;;;;6.90;66.71;99785.91;5053615;28;20053;-62
2021/10/31 11:20:41;;;;;;;14.85;7.30;;;;;;;6.91;66.09;99777.81;5054998;28;20440;-58
2021/10/31 11:23:20;;;;;;;13.88;7.00;;;;;;;6.88;66.28;99783.47;5005218;28;20072;-61
2021/10/31 11:25:47;;;;;;;28.48;8.15;;;;;;;6.86;66.47;99777.59;5052403;28;20517;-61
2021/10/31 11:28:15;;;;;;;10.90;6.80;;;;;;;6.89;66.53;99781.66;5053890;28;20037;-62
2021/10/31 11:30:44;;;;;;;9.75;6.07;;;;;;;6.90;66.63;99780.63;5054110;28;20493;-62
2021/10/31 11:33:10;;;;;;;10.40;6.45;;;;;;;6.88;66.76;99783.47;5053484;28;20091;-61
2021/10/31 11:35:37;;;;;;;10.73;7.03;;;;;;;6.87;66.65;99784.47;5053946;28;20041;-63
2021/10/31 11:38:04;;;;;;;16.35;6.55;;;;;;;6.89;66.92;99785.09;5053850;28;20049;-63
2021/10/31 11:40:36;;;;;;;12.60;7.10;;;;;;;6.91;66.74;99776.97;5052478;28;20167;-63
2021/10/31 11:43:06;;;;;;;13.85;7.13;;;;;;;6.95;66.52;99770.31;5046509;28;20040;-62